TimePDT,TemperatureF,Dew PointF,Humidity,Sea Level PressureIn,VisibilityMPH,Wind Direction,Wind SpeedMPH,Gust SpeedMPH,PrecipitationIn,Events,Conditions,WindDirDegrees,DateUTC
12:55 AM,66.2,49.1,54,29.75,10.0,NW,3.5,-,N/A,,Clear,310,2013-09-14 07:55:00
1:55 AM,66.2,46.9,50,29.74,10.0,Calm,Calm,-,N/A,,Clear,0,2013-09-14 08:55:00
2:55 AM,63.5,47.3,56,29.73,10.0,Calm,Calm,-,N/A,,Clear,0,2013-09-14 09:55:00
3:55 AM,64.2,48.9,58,29.73,10.0,Variable,2.3,-,N/A,,Clear,0,2013-09-14 10:55:00
4:55 AM,62.6,48.2,59,29.73,10.0,Calm,Calm,-,N/A,,Clear,0,2013-09-14 11:55:00
5:55 AM,62.6,50.0,63,29.74,10.0,Variable,2.3,-,N/A,,Clear,0,2013-09-14 12:55:00
6:55 AM,62.1,48.0,60,29.75,10.0,North,3.5,-,N/A,,Clear,350,2013-09-14 13:55:00
7:55 AM,70.3,50.2,49,29.76,10.0,North,1.2,-,N/A,,Clear,10,2013-09-14 14:55:00
8:55 AM,77.2,53.6,44,29.76,10.0,SE,1.2,-,N/A,,Clear,140,2013-09-14 15:55:00
9:55 AM,84.2,53.4,35,29.76,10.0,Variable,1.2,-,N/A,,Clear,0,2013-09-14 16:55:00
10:55 AM,90.5,50.7,26,29.75,10.0,Variable,3.5,-,N/A,,Clear,0,2013-09-14 17:55:00
11:55 AM,95.2,48.2,20,29.74,10.0,NW,6.9,-,N/A,,Partly Cloudy,320,2013-09-14 18:55:00
12:55 PM,96.6,46.9,18,29.72,10.0,NW,10.4,-,N/A,,Partly Cloudy,320,2013-09-14 19:55:00
1:55 PM,98.4,48.0,18,29.70,10.0,NW,11.5,-,N/A,,Partly Cloudy,310,2013-09-14 20:55:00
2:58 PM,98.8,48.7,18,29.68,10.0,WNW,13.8,-,N/A,,Partly Cloudy,300,2013-09-14 21:58:00
3:58 PM,98.1,51.3,21,29.67,10.0,WNW,13.8,-,N/A,,Partly Cloudy,300,2013-09-14 22:58:00
4:58 PM,95.5,50.4,22,29.67,10.0,WNW,15.0,-,N/A,,Partly Cloudy,300,2013-09-14 23:58:00
5:58 PM,92.3,50.0,24,29.68,10.0,WNW,10.4,-,N/A,,Partly Cloudy,300,2013-09-15 00:58:00
6:58 PM,86.7,54.1,33,29.69,10.0,NW,6.9,-,N/A,,Clear,310,2013-09-15 01:58:00
7:58 PM,82.2,55.0,39,29.71,10.0,NNW,8.1,-,N/A,,Clear,330,2013-09-15 02:58:00
8:58 PM,78.3,54.9,44,29.73,10.0,WNW,3.5,-,N/A,,Clear,300,2013-09-15 03:58:00
9:58 PM,76.8,55.4,47,29.74,10.0,West,4.6,-,N/A,,Clear,280,2013-09-15 04:58:00
10:55 PM,74.7,53.4,47,29.75,10.0,North,1.2,-,N/A,,Clear,350,2013-09-15 05:55:00
11:55 PM,71.1,53.2,53,29.75,10.0,WNW,5.8,-,N/A,,Clear,290,2013-09-15 06:55:00